BIRK/RKV METAR and TAF weather

Enter ICAO airport designator
Station Type Date Time Source
BIRK METAR 2022/01/29 10:00 UTC NOAA

BIRK 291000Z 35002KT CAVOK M04/M12 Q1020


Station Type Date Time Source
BIRK Decoded METAR 2022/01/29 10:00 UTC NOAA

Reykjavik, Iceland (BIRK) 64-08N 021-54W 61M
Jan 29, 2022 - 05:00 AM EST / 2022.01.29 1000 UTC
Wind: from the N (350 degrees) at 2 MPH (2 KT):0
Visibility: greater than 7 mile(s):0
Temperature: 24 F (-4 C)
Dew Point: 10 F (-12 C)
Relative Humidity: 53%
Pressure (altimeter): 30.12 in. Hg (1020 hPa)
ob: BIRK 291000Z 35002KT CAVOK M04/M12 Q1020
cycle: 10

Station Type Date Time Source
BIRK TAF 2022/01/29 09:01 UTC NOAA

TAF BIRK 290759Z 2909/3009 35016KT CAVOK TX02/2916Z TNM05/2910Z
BECMG 2909/2911 16010KT 9999 BKN035
TEMPO 2914/2918 3500 -SHSN BKN020
BECMG 2918/2920 22012KT
TEMPO 2918/3009 20015G25KT 2000 SHSN BKN015CB

Example: see airport list